Flight Track Log - Related Links

Times and Time Zones

All times are in EST time to prevent confusion due to time zone crossing. See the KLM1609 flight status page for this flight to view local times or setup timezone preferences in your user account.

Time Position Orientation Groundspeed Altitude Reporting Facility
EST Latitude Longitude Course Direction KTS MPH feet Rate Location/Type
Thu 03:23:15 PM 52.3656 4.7656 27° Northeast 172 198 3,400  Level FlightAware ADS-B
Thu 03:24:49 PM 52.4238 4.8737 49° Northeast 257 296 6,600 2,421 Climbing FlightAware ADS-B
Thu 03:25:09 PM 52.4242 4.9108 89° East 260 299 8,000 3,846 Climbing FlightAware ADS-B
Thu 03:25:28 PM 52.4242 4.9529 90° East 271 312 9,100 3,568 Climbing FlightAware ADS-B
Thu 03:25:46 PM 52.4179 4.9889 106° East 278 320 10,200 3,290 Climbing FlightAware ADS-B
Thu 03:25:59 PM 52.4088 5.0068 130° Southeast 278 320 10,800 2,077 Climbing FlightAware ADS-B
Thu 03:26:12 PM 52.3938 5.0252 143° Southeast 295 339 11,100 1,412 Climbing FlightAware ADS-B
Thu 03:26:33 PM 52.3678 5.0538 146° Southeast 278 320 11,600 1,250 Climbing FlightAware ADS-B
Thu 03:26:36 PM 52.3641 5.0580 145° Southeast 332 382 11,600 3,214 Level FlightAware ADS-B
Thu 03:27:29 PM 52.2978 5.1548 138° Southeast 365 420 14,600 2,936 Climbing FlightAware ADS-B
Thu 03:28:10 PM 52.2586 5.2209 134° Southeast 373 429 16,200 4,302 Climbing FlightAware ADS-B
Thu 03:28:22 PM 52.2421 5.2494 133° Southeast 383 441 18,400 3,467 Climbing FlightAware ADS-B
Thu 03:28:55 PM 52.1943 5.3300 134° Southeast 385 443 18,800 1,500 Climbing FlightAware ADS-B
Thu 03:29:34 PM 52.1563 5.3931 134° Southeast 393 452 20,200 1,913 Climbing FlightAware ADS-B
Thu 03:30:04 PM 52.1073 5.4741 135° Southeast 400 460 21,000 1,615 Climbing FlightAware ADS-B
Thu 03:30:52 PM 52.0466 5.5775 134° Southeast 402 463 22,300 1,467 Climbing FlightAware ADS-B
Thu 03:31:34 PM 51.9911 5.6695 134° Southeast 411 473 23,200 1,171 Climbing FlightAware ADS-B
Thu 03:32:14 PM 51.9362 5.7605 134° Southeast 419 482 23,900 1,378 Climbing FlightAware ADS-B
Thu 03:32:48 PM 51.8893 5.8373 135° Southeast 417 480 24,900 1,840 Climbing FlightAware ADS-B
Thu 03:33:29 PM 51.8329 5.9304 134° Southeast 425 489 26,200 1,862 Climbing FlightAware ADS-B
Thu 03:33:46 PM 51.8155 5.9581 136° Southeast 410 472 26,700 1,636 Climbing FlightAware ADS-B (EDKL)
Thu 03:34:24 PM 51.7623 6.0460 134° Southeast 438 504 27,700 2,113 Climbing FlightAware ADS-B
Thu 03:34:57 PM 51.7077 6.1262 138° Southeast 426 490 29,200 1,843 Climbing FlightAware ADS-B
Thu 03:36:57 PM 51.5148 6.3295 147° Southeast 431 496 32,400 1,632 Climbing FlightAware ADS-B (EDKL)
Thu 03:37:13 PM 51.4822 6.3645 146° Southeast 426 490 32,900 1,304 Climbing FlightAware ADS-B
Thu 03:37:43 PM 51.4404 6.4085 147° Southeast 436 502 33,400 1,143 Climbing FlightAware ADS-B
Thu 03:38:16 PM 51.3923 6.4581 147° Southeast 441 507 34,100 1,043 Climbing FlightAware ADS-B (EDKL)
Thu 03:38:52 PM 51.3161 6.5375 147° Southeast 452 520 34,600 1,182 Climbing FlightAware ADS-B (EDKL)
Thu 03:39:22 PM 51.2677 6.5884 147° Southeast 452 520 35,400 1,524 Climbing FlightAware ADS-B (EDKL)
Thu 03:39:55 PM 51.2040 6.6530 148° Southeast 449 517 36,200 1,543 Climbing FlightAware ADS-B
Thu 03:39:57 PM 51.2019 6.6551 148° Southeast 448 516 36,300 1,500 Climbing FlightAware ADS-B (EDKL)
Thu 03:40:27 PM 51.1523 6.7070 147° Southeast 447 514 37,000 1,371 Climbing FlightAware ADS-B (EDKL)
Thu 03:40:32 PM 51.1380 6.7210 149° Southeast 448 516 37,100 1,029 Climbing FlightAware ADS-B
Thu 03:41:02 PM 51.1049 6.7553 147° Southeast 448 516 37,600 1,000 Climbing FlightAware ADS-B (EDKL)
Thu 03:41:08 PM 51.0780 6.7840 146° Southeast 449 517 37,700 1,000 Climbing FlightAware ADS-B
Thu 03:41:32 PM 51.0688 6.7928 149° Southeast 449 517 38,100 982 Climbing FlightAware ADS-B (EDKL)
Thu 03:42:03 PM 51.0168 6.8465 147° Southeast 449 517 38,600 892 Climbing FlightAware ADS-B (EDKL)
Thu 03:42:46 PM 50.9054 6.9603 147° Southeast 444 511 39,200 714 Climbing FlightAware ADS-B
Thu 03:43:27 PM 50.8338 7.0316 148° Southeast 446 513 39,600 667 Climbing FlightAware ADS-B
Thu 03:43:58 PM 50.7856 7.0817 147° Southeast 453 521 40,000 774 Climbing FlightAware ADS-B
Thu 03:44:29 PM 50.7405 7.1263 148° Southeast 455 524 40,400 923 Climbing FlightAware ADS-B (EDKL)
Thu 03:44:37 PM 50.7180 7.1494 147° Southeast 456 525 40,600 566 Climbing FlightAware ADS-B (EDKL)
Thu 03:45:22 PM 50.6313 7.2370 147° Southeast 458 527 40,900 276 Climbing FlightAware ADS-B
Thu 03:46:04 PM 50.5619 7.3069 147° Southeast 461 531 41,000 71 Climbing FlightAware ADS-B
Thu 03:46:47 PM 50.4789 7.3897 148° Southeast 463 533 41,000  Level FlightAware ADS-B
Thu 03:47:00 PM 50.4536 7.4146 148° Southeast 456 525 41,000  Level FlightAware ADS-B
Thu 03:47:24 PM 50.4098 7.4576 148° Southeast 456 525 41,000  Level FlightAware ADS-B
Thu 03:48:07 PM 50.3420 7.5240 148° Southeast 463 533 41,000  Level FlightAware ADS-B
Thu 03:49:58 PM 50.1346 7.7288 148° Southeast 456 525 41,000  Level FlightAware ADS-B
Thu 03:50:37 PM 50.0656 7.7967 148° Southeast 456 525 41,000  Level FlightAware ADS-B
Thu 03:51:17 PM 49.9939 7.8663 148° Southeast 453 521 41,000  Level FlightAware ADS-B
Thu 03:51:57 PM 49.9214 7.9365 148° Southeast 450 518 41,000  Level FlightAware ADS-B
Thu 03:52:36 PM 49.8540 8.0012 148° Southeast 450 518 41,000  Level FlightAware ADS-B
Thu 03:53:17 PM 49.7846 8.0672 148° Southeast 449 517 41,000  Level FlightAware ADS-B
Thu 03:53:57 PM 49.7099 8.1400 148° Southeast 449 517 41,000  Level FlightAware ADS-B
Thu 03:56:34 PM 49.4330 8.4024 159° South 451 519 41,000  Level FlightAware ADS-B
Thu 03:57:00 PM 49.4405 8.3026 159° South  Level Estimated
Thu 03:57:34 PM 49.3272 8.5027 148° Southeast 451 519 41,000  Level FlightAware ADS-B (ETSE)
Thu 03:58:47 PM 49.2017 8.6211 148° Southeast 450 518 41,000  Level FlightAware ADS-B (ETSE)
Thu 04:02:07 PM 48.8427 8.9533 160° South 441 507 41,000  Level FlightAware ADS-B (KGHG)
Thu 04:02:44 PM 48.7721 9.0169 149° Southeast 440 506 41,000  Level FlightAware ADS-B (KGHG)
Thu 04:03:25 PM 48.7029 9.0808 149° Southeast 439 505 41,000  Level FlightAware ADS-B (KGHG)
Thu 04:05:13 PM 48.5220 9.2456 161° South 436 502 41,000  Level FlightAware ADS-B (EDDM / MUC)
Thu 04:05:48 PM 48.4534 9.3083 149° Southeast 438 504 41,000  Level FlightAware ADS-B (KGHG)
Thu 04:06:27 PM 48.4653 9.2972 328° Northwest 440 506 41,000  Level FlightAware ADS-B (ETSE)
Thu 04:07:06 PM 48.3161 9.4309 149° Southeast 442 509 41,000  Level FlightAware ADS-B (KGHG)
Thu 04:07:46 PM 48.2586 9.4826 149° Southeast 441 507 41,000  Level FlightAware ADS-B (EDDM / MUC)
Thu 04:08:20 PM 48.1960 9.5389 149° Southeast 442 509 41,000  Level FlightAware ADS-B (EDDM / MUC)
Thu 04:08:59 PM 48.1269 9.5998 150° Southeast 441 507 41,000  Level FlightAware ADS-B (EDDM / MUC)
Thu 04:09:29 PM 48.0743 9.6466 149° Southeast 442 509 41,000  Level FlightAware ADS-B (EDDM / MUC)
Thu 04:10:00 PM 48.0226 9.6933 149° Southeast 442 509 41,000  Level FlightAware ADS-B (EDDM / MUC)
Thu 04:10:35 PM 47.9586 9.7492 150° Southeast 443 510 41,000  Level FlightAware ADS-B (EDDM / MUC)
Thu 04:11:08 PM 47.9001 9.8004 150° Southeast 443 510 41,000  Level FlightAware ADS-B (EDDM / MUC)
Thu 04:11:42 PM 47.8403 9.8532 149° Southeast 443 510 41,000  Level FlightAware ADS-B (EDDM / MUC)
Thu 04:12:12 PM 47.7910 9.8966 149° Southeast 444 511 41,000  Level FlightAware ADS-B (EDDM / MUC)
Thu 04:12:53 PM 47.7168 9.9614 150° Southeast 441 507 41,000  Level FlightAware ADS-B (EDDM / MUC)
Thu 04:13:26 PM 47.6586 10.0118 150° Southeast 441 507 41,000  Level FlightAware ADS-B (EDDM / MUC)
Thu 04:14:07 PM 47.5855 10.0743 150° Southeast 441 507 41,000  Level FlightAware ADS-B (ETSE)
Thu 04:14:39 PM 47.5283 10.1245 149° Southeast 440 506 41,000  Level FlightAware ADS-B (EDDM / MUC)
Thu 04:15:22 PM 47.4563 10.1865 150° Southeast 439 505 41,000  Level FlightAware ADS-B (EDDM / MUC)
Thu 04:16:06 PM 47.3769 10.2559 149° Southeast 438 504 41,000  Level FlightAware ADS-B (EDDM / MUC)
Thu 04:16:39 PM 47.3086 10.3145 150° Southeast 437 503 41,000  Level FlightAware ADS-B (KGHG)
Thu 04:17:20 PM 47.2372 10.3744 150° Southeast 438 504 41,000  Level FlightAware ADS-B (KGHG)
Thu 04:17:53 PM 47.1895 10.4161 149° Southeast 436 502 41,000  Level FlightAware ADS-B (EDDM / MUC)
Thu 04:18:33 PM 47.1201 10.4737 151° Southeast 435 501 41,000  Level FlightAware ADS-B (EDDM / MUC)
Thu 04:18:55 PM 47.0728 10.5144 150° Southeast 431 496 41,000  Level FlightAware ADS-B (KGHG)
Thu 04:19:29 PM 47.0232 10.5438 158° South 426 490 41,000  Level FlightAware ADS-B (ETSE)
Thu 04:19:42 PM 47.0075 10.5507 163° South 424 488 41,000  Level FlightAware ADS-B (KGHG)
Thu 04:20:17 PM 46.9303 10.5826 164° South 423 487 41,000  Level FlightAware ADS-B (EDDM / MUC)
Thu 04:20:59 PM 46.8500 10.6074 168° South 422 486 41,000  Level FlightAware ADS-B (EDDM / MUC)
Thu 04:21:39 PM 46.7725 10.6312 168° South 420 483 41,000  Level FlightAware ADS-B (EDDM / MUC)
Thu 04:22:22 PM 46.6927 10.6555 168° South 418 481 41,000  Level FlightAware ADS-B (EDDM / MUC)
Thu 04:23:05 PM 46.6110 10.6806 168° South 416 479 41,000  Level FlightAware ADS-B (EDDM / MUC)
Thu 04:23:47 PM 46.5306 10.7052 168° South 420 483 41,000  Level FlightAware ADS-B (EDDM / MUC)
Thu 04:24:23 PM 46.4621 10.7260 168° South 421 484 41,000  Level FlightAware ADS-B (ETSE)
Thu 04:25:01 PM 46.3916 10.7472 168° South 424 488 41,000  Level FlightAware ADS-B (ETSE)
Thu 04:25:41 PM 46.3151 10.7702 168° South 436 502 41,000  Level FlightAware ADS-B (ETSE)
Thu 04:26:13 PM 46.2502 10.7901 168° South 437 503 41,000  Level FlightAware ADS-B (EDDM / MUC)
Thu 04:26:53 PM 46.1704 10.8141 168° South 439 505 41,000  Level FlightAware ADS-B (EDDM / MUC)
Thu 04:27:35 PM 46.0853 10.8397 168° South 441 507 41,000  Level FlightAware ADS-B (EDDM / MUC)
Thu 04:28:20 PM 45.9963 10.8660 168° South 443 510 41,000  Level FlightAware ADS-B (EDDM / MUC)
Thu 04:28:57 PM 45.9208 10.8889 168° South 443 510 41,000  Level FlightAware ADS-B (EDDM / MUC)
Thu 04:29:44 PM 45.8279 10.9164 168° South 442 509 41,000  Level FlightAware ADS-B (EDDM / MUC)
Thu 04:30:04 PM 45.7867 10.9287 168° South 440 506 41,000  Level FlightAware ADS-B (LIPT / VIC)
Thu 04:30:45 PM 45.7147 10.9499 168° South 440 506 41,000  Level FlightAware ADS-B (ETSE)
Thu 04:31:27 PM 45.6207 10.9774 168° South 440 506 41,000  Level FlightAware ADS-B (EDDM / MUC)
Thu 04:32:10 PM 45.5377 11.0019 168° South 437 503 41,000  Level FlightAware ADS-B (EDDM / MUC)
Thu 04:33:12 PM 45.4169 11.0374 168° South 425 489 41,000  Level FlightAware ADS-B (LIPT / VIC)
Thu 04:33:44 PM 45.3849 11.0465 169° South 425 489 41,000  Level FlightAware ADS-B (LIPT / VIC)
Thu 04:35:11 PM 45.1859 11.1030 169° South 423 487 41,000  Level FlightAware ADS-B (LIPT / VIC)
Thu 04:35:50 PM 45.1137 11.1216 170° South 422 486 41,000  Level FlightAware ADS-B (LIPT / VIC)
Thu 04:36:29 PM 45.0865 11.1293 169° South 421 484 41,000  Level FlightAware ADS-B (LIPT / VIC)
Thu 04:37:06 PM 44.9664 11.1608 169° South 421 484 41,000 -500 Level FlightAware ADS-B (LIPT / VIC)
Thu 04:37:53 PM 44.8768 11.1848 169° South 424 488 40,300 -996 Descending FlightAware ADS-B (LIPT / VIC)
Thu 04:41:31 PM 44.4699 11.2917 166° South 399 459 36,600 -1,027 Descending FlightAware ADS-B (LIPT / VIC)
Thu 04:42:10 PM 44.3994 11.3094 170° South 398 458 35,900 -1,050 Descending FlightAware ADS-B (LIPT / VIC)
Thu 04:45:31 PM 44.0535 11.3985 165° South 397 457 32,400 -1,113 Descending FlightAware ADS-B (LIPT / VIC)
Thu 04:46:18 PM 43.9618 11.4221 170° South 402 463 31,300 -1,404 Descending FlightAware ADS-B (LIPT / VIC)
Thu 04:48:00 PM 43.8080 11.4832 164° South  Level Estimated
Thu 04:49:00 PM 43.7175 11.5190 164° South  Level Estimated
Thu 04:50:00 PM 43.6271 11.5547 164° South  Level Estimated
Thu 04:51:00 PM 43.5366 11.5902 164° South  Level Estimated
Thu 04:52:00 PM 43.4461 11.6257 164° South  Level Estimated
Thu 04:53:00 PM 43.3556 11.6611 164° South  Level Estimated
Thu 04:54:00 PM 43.2650 11.6964 164° South  Level Estimated
Thu 04:55:00 PM 43.1745 11.7315 164° South  Level Estimated
Thu 04:56:00 PM 43.0840 11.7666 164° South  Level Estimated
Thu 04:57:00 PM 42.9934 11.8015 164° South  Level Estimated
Thu 04:58:00 PM 42.9028 11.8364 164° South  Level Estimated
Thu 04:59:00 PM 42.8122 11.8711 164° South  Level Estimated
Thu 05:00:00 PM 42.7217 11.9058 164° South  Level Estimated
Thu 05:01:00 PM 42.6311 11.9403 164° South  Level Estimated
Thu 05:02:00 PM 42.5405 11.9748 164° South  Level Estimated
Thu 05:03:00 PM 42.4498 12.0091 164° South  Level Estimated
Thu 05:04:00 PM 42.3592 12.0434 164° South  Level Estimated
Thu 05:05:00 PM 42.2686 12.0775 164° South  Level Estimated
Thu 05:06:00 PM 42.1779 12.1116 164° South  Level Estimated
Thu 05:07:00 PM 42.0872 12.1455 164° South  Level Estimated
Thu 05:08:00 PM 41.9966 12.1794 164° South  Level Estimated
Thu 05:09:00 PM 41.9059 12.2132 165° South  Level Estimated
Thu 05:10:00 PM 41.8152 12.2468 165° South  Level Estimated
Thu 05:11:00 PM 41.8045 12.2508 165° South  Level Estimated
Thu 05:12:00 PM 41.8045 12.2508 336° Northwest  Level Estimated
Thu 05:13:00 PM 41.8045 12.2508 336° Northwest  Level Estimated
Thu 05:14:00 PM 41.8045 12.2508 336° Northwest  Level Estimated
Thu 05:15:00 PM 41.8045 12.2508 336° Northwest  Level Estimated
Thu 05:16:00 PM 41.8045 12.2508 336° Northwest  Level Estimated
Thu 05:17:00 PM 41.8045 12.2508 336° Northwest  Level Estimated
Thu 05:18:00 PM 41.8045 12.2508 336° Northwest  Level Estimated
Thu 05:19:00 PM 41.8045 12.2508 336° Northwest  Level Estimated
Thu 05:20:00 PM 41.8045 12.2508 336° Northwest  Level Estimated
Thu 05:21:00 PM 41.8045 12.2508 336° Northwest  Level Estimated
Thu 05:22:00 PM 41.8045 12.2508 336° Northwest  Level Estimated
Thu 05:23:00 PM 41.8045 12.2508 336° Northwest  Level Estimated
Thu 05:24:00 PM 41.8045 12.2508 336° Northwest  Level Estimated
Thu 05:25:00 PM 41.8045 12.2508 336° Northwest  Level Estimated

Login

Don't have an account? Register now (free) for customized features, flight alerts, and more!